Time;durP1;ratioP1;P1;durP2;ratioP2;P2;SDS_P1;SDS_P2;PMS_P1;PMS_P2;Temp;Humidity;BMP_temperature;BMP_pressure;BME280_temperature;BME280_humidity;BME280_pressure;Samples;Min_cycle;Max_cycle;Signal;HPM_P1;HPM_P2
2023/09/02 00:00:02;;;;;;;10.60;8.50;;;;;;;16.13;96.33;98022.98;106771;1278;22600;-79
2023/09/02 00:02:59;;;;;;;9.30;7.90;;;;;;;16.15;96.94;98021.67;106461;1268;24807;-80
2023/09/02 00:05:27;;;;;;;8.30;7.20;;;;;;;16.09;97.31;98018.74;106604;1266;22566;-79
2023/09/02 00:07:56;;;;;;;10.00;7.80;;;;;;;16.13;97.44;98009.05;106878;1278;22618;-80
2023/09/02 00:10:23;;;;;;;9.50;7.50;;;;;;;16.16;97.77;98011.45;106983;1278;25491;-80
2023/09/02 00:12:51;;;;;;;8.40;6.60;;;;;;;16.21;97.82;98012.52;107020;1265;24390;-80
2023/09/02 00:15:19;;;;;;;10.20;7.40;;;;;;;16.25;97.81;98013.75;106919;1266;22651;-80
2023/09/02 00:17:48;;;;;;;10.70;7.60;;;;;;;16.24;97.91;98014.09;106929;1263;22570;-79
2023/09/02 00:20:17;;;;;;;10.70;7.60;;;;;;;16.21;97.80;98017.63;107209;1277;24190;-80
2023/09/02 00:22:45;;;;;;;10.00;7.60;;;;;;;16.21;98.17;98025.79;106998;1277;25508;-80
2023/09/02 00:25:14;;;;;;;9.30;8.20;;;;;;;16.23;98.09;98028.42;107115;1277;23124;-80
2023/09/02 00:27:41;;;;;;;13.00;8.30;;;;;;;16.23;98.03;98029.19;106902;1277;190116;-80
2023/09/02 00:30:10;;;;;;;9.50;7.40;;;;;;;16.22;98.29;98027.47;107021;1278;25818;-80
2023/09/02 00:32:38;;;;;;;9.40;7.60;;;;;;;16.23;98.65;98032.63;106844;1278;23501;-80
2023/09/02 00:35:06;;;;;;;10.80;7.60;;;;;;;16.29;99.24;98024.37;107003;1278;22545;-80
2023/09/02 00:37:34;;;;;;;11.10;6.70;;;;;;;16.35;98.88;98033.37;106871;1256;25478;-80
2023/09/02 00:40:04;;;;;;;7.90;6.50;;;;;;;16.32;98.65;98035.38;106894;1278;25252;-80
2023/09/02 00:42:33;;;;;;;9.20;6.50;;;;;;;16.26;98.72;98043.99;106962;1279;22543;-80
2023/09/02 00:45:01;;;;;;;8.10;6.90;;;;;;;16.19;99.22;98044.54;106956;1266;22543;-80
2023/09/02 00:47:30;;;;;;;8.60;6.70;;;;;;;16.20;99.54;98036.70;107036;1267;22538;-80
2023/09/02 00:50:00;;;;;;;8.30;6.40;;;;;;;16.20;99.58;98029.13;107012;1278;22545;-80
2023/09/02 00:52:32;;;;;;;11.10;6.90;;;;;;;16.20;99.82;98019.67;107005;1278;25361;-80
2023/09/02 00:55:01;;;;;;;8.30;6.60;;;;;;;16.19;99.72;98020.73;107040;1256;25572;-80
2023/09/02 00:57:30;;;;;;;9.90;6.30;;;;;;;16.19;99.75;98021.05;106593;1276;22626;-80
2023/09/02 00:59:59;;;;;;;7.60;6.80;;;;;;;16.19;99.99;98014.22;106963;1263;25443;-80
2023/09/02 01:02:28;;;;;;;7.60;5.80;;;;;;;16.22;100.00;98002.14;106997;1278;24213;-80
2023/09/02 01:04:58;;;;;;;8.40;6.00;;;;;;;16.24;100.00;98006.95;107074;1278;22629;-80
2023/09/02 01:07:26;;;;;;;7.40;6.30;;;;;;;16.27;100.00;98014.30;106549;1278;24219;-81
2023/09/02 01:09:56;;;;;;;7.40;6.60;;;;;;;16.29;100.00;98009.91;106914;1278;22644;-80
2023/09/02 01:12:26;;;;;;;7.40;6.20;;;;;;;16.35;100.00;98005.70;106853;1278;22600;-80
2023/09/02 01:14:53;;;;;;;10.30;5.80;;;;;;;16.43;100.00;97998.71;106856;1276;25384;-81
2023/09/02 01:17:22;;;;;;;9.40;6.20;;;;;;;16.47;100.00;97993.37;106993;1278;25521;-80
2023/09/02 01:19:51;;;;;;;8.20;6.40;;;;;;;16.45;100.00;97986.56;106915;1265;22774;-81
2023/09/02 01:22:28;;;;;;;7.80;6.30;;;;;;;16.48;100.00;97990.95;107023;1267;22652;-80
2023/09/02 01:25:35;;;;;;;8.20;6.30;;;;;;;16.44;100.00;97995.70;106962;1265;25301;-81
2023/09/02 01:28:20;;;;;;;7.20;6.30;;;;;;;16.41;100.00;97996.85;106585;1277;22522;-81
2023/09/02 01:30:53;;;;;;;7.50;5.80;;;;;;;16.43;100.00;97995.75;107146;1277;22546;-81
2023/09/02 01:33:26;;;;;;;6.70;5.90;;;;;;;16.37;100.00;97989.17;107006;1278;22765;-79
2023/09/02 01:35:58;;;;;;;8.40;5.60;;;;;;;16.33;100.00;98001.95;106742;1278;25448;-79
2023/09/02 01:38:29;;;;;;;7.00;5.70;;;;;;;16.31;100.00;98003.34;106900;1266;24441;-79
2023/09/02 01:41:01;;;;;;;8.00;6.00;;;;;;;16.25;100.00;97996.64;107060;1263;22541;-79
2023/09/02 01:43:31;;;;;;;8.60;5.60;;;;;;;16.21;100.00;97994.64;106700;1277;22634;-80
2023/09/02 01:45:59;;;;;;;6.00;5.40;;;;;;;16.13;100.00;97994.52;107012;1278;25348;-80
2023/09/02 01:48:28;;;;;;;7.70;5.10;;;;;;;16.05;100.00;97982.42;106881;1273;24247;-79
2023/09/02 01:50:58;;;;;;;5.90;5.30;;;;;;;16.06;100.00;97974.67;106991;1277;24383;-79
2023/09/02 01:53:26;;;;;;;6.50;4.60;;;;;;;16.06;100.00;97985.02;106979;1263;25338;-79
2023/09/02 01:55:55;;;;;;;7.80;5.50;;;;;;;16.03;100.00;98002.67;106774;1278;24240;-79
2023/09/02 01:58:24;;;;;;;9.30;5.50;;;;;;;15.93;100.00;98014.35;106980;1263;22634;-80
2023/09/02 02:00:52;;;;;;;8.10;5.60;;;;;;;15.87;100.00;98020.09;106953;1278;22587;-80
2023/09/02 02:03:28;;;;;;;7.40;6.00;;;;;;;15.82;100.00;98011.86;106514;1267;22523;-80
2023/09/02 02:05:58;;;;;;;8.30;5.90;;;;;;;15.83;100.00;98009.23;106878;1277;22771;-80
2023/09/02 02:09:00;;;;;;;9.90;5.40;;;;;;;15.86;100.00;98001.14;106959;1268;24206;-80
2023/09/02 02:11:34;;;;;;;8.60;5.60;;;;;;;15.94;100.00;98009.86;106608;1278;24367;-79
2023/09/02 02:14:03;;;;;;;7.70;6.10;;;;;;;15.93;100.00;98012.08;106532;1271;24441;-80
2023/09/02 02:16:32;;;;;;;9.90;6.60;;;;;;;15.93;100.00;98020.23;106669;1284;22499;-79
2023/09/02 02:19:00;;;;;;;8.00;6.00;;;;;;;15.95;100.00;98010.59;106614;1284;22534;-80
2023/09/02 02:21:31;;;;;;;10.20;6.00;;;;;;;15.95;100.00;98008.59;106821;1284;24318;-79
2023/09/02 02:23:59;;;;;;;7.50;6.20;;;;;;;15.94;100.00;98033.09;106705;1285;22943;-79
2023/09/02 02:26:27;;;;;;;7.10;5.70;;;;;;;15.89;100.00;98035.55;106447;1284;22530;-79
2023/09/02 02:28:55;;;;;;;9.20;6.50;;;;;;;15.85;100.00;98032.31;106512;1273;22660;-78
2023/09/02 02:31:23;;;;;;;10.20;6.80;;;;;;;15.86;100.00;98027.13;106532;1273;22768;-79
2023/09/02 02:33:51;;;;;;;9.00;6.50;;;;;;;15.87;100.00;98020.34;106159;1284;22608;-79
2023/09/02 02:36:19;;;;;;;7.10;6.40;;;;;;;15.88;100.00;98023.02;106174;1284;22668;-79
2023/09/02 02:38:47;;;;;;;8.70;6.50;;;;;;;15.92;100.00;98019.13;106174;1284;22648;-79
2023/09/02 02:41:15;;;;;;;8.00;5.90;;;;;;;15.97;100.00;98011.99;106530;1284;22657;-79
2023/09/02 02:43:43;;;;;;;8.40;6.30;;;;;;;16.00;100.00;98009.41;106090;1269;24123;-80
2023/09/02 02:46:11;;;;;;;7.50;5.80;;;;;;;16.08;100.00;98005.22;106469;1284;22760;-80
2023/09/02 02:48:39;;;;;;;10.60;5.40;;;;;;;16.17;100.00;98003.59;106871;1270;22640;-78
2023/09/02 02:51:07;;;;;;;8.30;5.30;;;;;;;16.22;100.00;98003.09;106985;1275;24238;-78
2023/09/02 02:53:37;;;;;;;9.50;6.30;;;;;;;16.27;100.00;98008.85;107037;1277;22740;-79
2023/09/02 02:56:05;;;;;;;8.70;5.70;;;;;;;16.29;100.00;98004.57;106533;1278;22532;-79
2023/09/02 02:58:33;;;;;;;8.20;6.00;;;;;;;16.28;100.00;98003.23;106940;1278;22662;-79
2023/09/02 03:01:06;;;;;;;7.00;5.30;;;;;;;16.27;100.00;98009.64;106610;1277;24358;-79
2023/09/02 03:03:35;;;;;;;6.90;5.40;;;;;;;16.29;100.00;98011.02;106693;1278;22603;-79
2023/09/02 03:06:04;;;;;;;6.90;5.50;;;;;;;16.30;100.00;98009.48;106881;1278;24368;-79
2023/09/02 03:08:33;;;;;;;5.50;4.70;;;;;;;16.34;100.00;98004.20;106959;1278;24831;-80
2023/09/02 03:11:05;;;;;;;6.30;5.10;;;;;;;16.30;100.00;98006.02;106915;1278;22997;-79
2023/09/02 03:13:34;;;;;;;6.30;5.40;;;;;;;16.25;100.00;97999.70;107029;1278;22539;-79
2023/09/02 03:16:10;;;;;;;7.70;4.30;;;;;;;16.25;100.00;98002.95;106668;1278;22634;-78
2023/09/02 03:18:40;;;;;;;6.40;4.80;;;;;;;16.33;100.00;97998.88;106747;1266;24478;-78
2023/09/02 03:21:09;;;;;;;5.30;4.70;;;;;;;16.36;100.00;97996.89;106648;1263;25463;-78
2023/09/02 03:23:37;;;;;;;9.50;5.40;;;;;;;16.33;100.00;97997.83;106741;1278;22642;-78
2023/09/02 03:26:15;;;;;;;5.80;5.00;;;;;;;16.32;100.00;97998.47;106594;1278;24760;-78
2023/09/02 03:28:45;;;;;;;5.40;4.60;;;;;;;16.34;100.00;97998.77;106752;1271;22534;-78
2023/09/02 03:31:13;;;;;;;6.90;4.20;;;;;;;16.38;100.00;98001.91;106682;1277;25587;-78
2023/09/02 03:33:42;;;;;;;5.70;4.70;;;;;;;16.40;100.00;98004.73;106613;1278;25284;-79
2023/09/02 03:36:16;;;;;;;7.80;5.10;;;;;;;16.39;100.00;98007.02;106656;1259;22600;-78
2023/09/02 03:38:46;;;;;;;7.40;5.90;;;;;;;16.34;100.00;98004.98;106624;1278;22529;-80
2023/09/02 03:41:17;;;;;;;7.40;6.30;;;;;;;16.29;100.00;98006.27;106499;1278;25223;-78
2023/09/02 03:43:46;;;;;;;6.50;5.70;;;;;;;16.24;100.00;98009.21;106525;1267;22515;-78
2023/09/02 03:46:14;;;;;;;7.10;5.40;;;;;;;16.21;100.00;98011.20;106624;1256;25502;-78
2023/09/02 03:48:43;;;;;;;7.60;5.40;;;;;;;16.22;100.00;98010.38;106631;1270;22527;-78
2023/09/02 03:51:12;;;;;;;6.20;5.60;;;;;;;16.23;100.00;98007.30;106621;1278;22545;-79
2023/09/02 03:53:43;;;;;;;7.70;5.30;;;;;;;16.26;100.00;98015.34;106757;1268;23868;-79
2023/09/02 03:56:13;;;;;;;6.40;5.40;;;;;;;16.26;100.00;98029.48;106565;1278;22762;-79
2023/09/02 03:58:41;;;;;;;7.80;5.30;;;;;;;16.24;100.00;98026.69;106899;1278;25356;-79
2023/09/02 04:01:11;;;;;;;7.60;4.70;;;;;;;16.24;100.00;98031.80;106903;1278;22646;-79
2023/09/02 04:03:40;;;;;;;5.60;4.60;;;;;;;16.24;100.00;98029.56;106920;1254;22569;-79
2023/09/02 04:06:10;;;;;;;7.30;5.40;;;;;;;16.28;100.00;98023.64;107004;1278;22648;-80
2023/09/02 04:08:38;;;;;;;6.40;5.20;;;;;;;16.33;100.00;98029.42;106688;1278;24891;-79
2023/09/02 04:11:06;;;;;;;6.00;5.20;;;;;;;16.29;100.00;98037.83;106513;1277;22637;-80
2023/09/02 04:13:34;;;;;;;6.90;5.40;;;;;;;16.24;100.00;98039.51;106923;1278;24375;-80
2023/09/02 04:16:08;;;;;;;6.60;5.60;;;;;;;16.20;100.00;98045.27;107104;1278;24252;-80
2023/09/02 04:18:37;;;;;;;6.60;5.50;;;;;;;16.13;100.00;98047.17;107040;1278;24450;-80
2023/09/02 04:21:08;;;;;;;7.60;5.80;;;;;;;16.16;100.00;98054.95;107098;1277;22761;-80
2023/09/02 04:23:41;;;;;;;7.30;5.80;;;;;;;16.14;100.00;98057.91;106932;1267;24362;-80
2023/09/02 04:26:11;;;;;;;6.00;5.20;;;;;;;16.08;100.00;98053.73;106877;1255;25400;-80
2023/09/02 04:28:40;;;;;;;5.70;5.10;;;;;;;16.08;100.00;98048.01;106858;1277;24058;-80
2023/09/02 04:31:08;;;;;;;7.10;5.50;;;;;;;16.10;100.00;98051.80;106779;1271;22532;-80
2023/09/02 04:33:37;;;;;;;5.80;4.70;;;;;;;16.11;100.00;98051.50;106935;1277;22530;-80
2023/09/02 04:36:06;;;;;;;5.80;5.20;;;;;;;16.12;100.00;98054.29;106898;1263;22580;-79
2023/09/02 04:38:39;;;;;;;8.80;6.10;;;;;;;16.11;100.00;98061.33;106816;1278;24298;-80
2023/09/02 04:41:07;;;;;;;6.80;5.60;;;;;;;16.10;100.00;98067.95;106883;1269;23386;-80
2023/09/02 04:43:37;;;;;;;6.50;5.80;;;;;;;16.09;100.00;98067.67;106930;1275;23481;-80
2023/09/02 04:46:05;;;;;;;6.60;5.90;;;;;;;16.02;100.00;98067.88;106897;1278;22549;-80
2023/09/02 04:48:36;;;;;;;5.90;5.20;;;;;;;15.98;100.00;98069.02;106986;1278;23777;-80
2023/09/02 04:51:07;;;;;;;5.40;4.60;;;;;;;15.98;100.00;98071.23;106973;1278;22585;-80
2023/09/02 04:53:36;;;;;;;6.20;5.10;;;;;;;15.95;100.00;98073.36;107078;1276;22643;-80
2023/09/02 04:56:05;;;;;;;7.20;6.40;;;;;;;15.93;100.00;98074.45;106803;1266;22535;-80
2023/09/02 04:58:35;;;;;;;5.40;4.50;;;;;;;15.91;100.00;98075.90;106780;1275;22756;-80
2023/09/02 05:01:08;;;;;;;4.70;3.80;;;;;;;15.88;100.00;98078.77;106824;1278;22529;-79
2023/09/02 05:03:36;;;;;;;4.40;3.60;;;;;;;15.85;100.00;98080.99;106883;1278;22546;-79
2023/09/02 05:06:07;;;;;;;4.10;3.10;;;;;;;15.83;100.00;98079.20;107146;1278;23208;-79
2023/09/02 05:08:38;;;;;;;5.50;3.50;;;;;;;15.83;100.00;98076.79;106884;1276;22712;-80
2023/09/02 05:11:07;;;;;;;4.30;2.60;;;;;;;15.87;100.00;98074.67;106919;1272;22736;-80
2023/09/02 05:13:35;;;;;;;6.10;3.40;;;;;;;15.91;100.00;98076.71;106891;1278;22632;-80
2023/09/02 05:16:03;;;;;;;3.10;2.80;;;;;;;15.95;100.00;98077.70;106954;1275;22536;-80
2023/09/02 05:18:32;;;;;;;4.10;3.00;;;;;;;15.95;100.00;98085.32;106828;1278;24345;-80
2023/09/02 05:21:00;;;;;;;4.30;3.10;;;;;;;16.00;100.00;98089.23;107024;1263;22594;-80
2023/09/02 05:23:28;;;;;;;6.00;3.00;;;;;;;16.04;100.00;98087.85;106809;1278;22519;-78
2023/09/02 05:25:57;;;;;;;3.30;2.70;;;;;;;16.07;100.00;98088.05;106568;1275;24379;-78
2023/09/02 05:28:25;;;;;;;3.90;2.80;;;;;;;16.10;100.00;98089.54;106655;1275;22596;-78
2023/09/02 05:30:56;;;;;;;4.70;2.90;;;;;;;16.09;100.00;98091.30;106653;1275;22639;-78
2023/09/02 05:33:24;;;;;;;3.30;2.50;;;;;;;16.12;100.00;98091.25;106548;1278;23938;-79
2023/09/02 05:35:54;;;;;;;4.40;3.20;;;;;;;16.14;100.00;98097.48;107081;1274;24215;-79
2023/09/02 05:38:22;;;;;;;4.20;3.30;;;;;;;16.16;100.00;98097.77;107165;1274;22643;-89
2023/09/02 05:40:50;;;;;;;5.30;3.40;;;;;;;16.22;100.00;98100.78;107207;1278;22619;-85
2023/09/02 05:43:19;;;;;;;4.60;3.70;;;;;;;16.30;100.00;98104.43;107187;1264;22576;-88
2023/09/02 05:45:48;;;;;;;4.70;3.80;;;;;;;16.38;100.00;98110.16;107328;1275;22569;-90
2023/09/02 05:48:17;;;;;;;4.40;3.80;;;;;;;16.42;100.00;98114.14;107155;1267;22578;-90
2023/09/02 05:50:45;;;;;;;4.50;4.00;;;;;;;16.45;100.00;98114.38;107173;1278;23010;-90
2023/09/02 05:53:13;;;;;;;4.60;4.10;;;;;;;16.47;100.00;98114.27;107214;1273;25407;-91
2023/09/02 05:55:41;;;;;;;6.60;3.80;;;;;;;16.50;100.00;98117.60;107492;1277;22535;-89
2023/09/02 05:58:09;;;;;;;6.00;3.70;;;;;;;16.56;100.00;98115.50;107480;1267;22521;-89
2023/09/02 06:00:37;;;;;;;5.60;3.80;;;;;;;16.59;100.00;98118.80;108205;1278;22605;-91
2023/09/02 06:03:05;;;;;;;6.20;3.80;;;;;;;16.60;100.00;98121.23;107260;1272;25316;-90
2023/09/02 06:05:33;;;;;;;5.00;4.10;;;;;;;16.62;100.00;98116.95;107086;1259;22637;-85
2023/09/02 06:08:01;;;;;;;4.10;3.70;;;;;;;16.62;100.00;98117.05;107059;1278;24052;-86
2023/09/02 06:10:29;;;;;;;5.00;4.40;;;;;;;16.58;100.00;98116.98;108042;1267;22544;-87
2023/09/02 06:12:57;;;;;;;5.80;4.50;;;;;;;16.57;100.00;98123.23;107994;1272;22488;-82
2023/09/02 06:15:26;;;;;;;6.00;4.20;;;;;;;16.57;100.00;98121.92;109899;1277;22566;-82
2023/09/02 06:17:54;;;;;;;5.30;4.30;;;;;;;16.57;100.00;98126.66;109737;1275;24257;-87
2023/09/02 06:20:23;;;;;;;5.20;4.10;;;;;;;16.61;100.00;98128.73;107010;1275;24362;-88
2023/09/02 06:22:51;;;;;;;5.10;4.30;;;;;;;16.68;100.00;98126.58;106992;1275;25432;-84
2023/09/02 06:25:20;;;;;;;5.40;4.20;;;;;;;16.70;100.00;98130.01;106843;1276;24073;-88
2023/09/02 06:27:48;;;;;;;6.20;4.00;;;;;;;16.73;100.00;98129.81;107037;1278;22732;-87
2023/09/02 06:30:16;;;;;;;5.60;4.20;;;;;;;16.77;100.00;98126.17;106941;1272;25259;-83
2023/09/02 06:32:45;;;;;;;5.10;4.40;;;;;;;16.82;100.00;98134.13;106874;1278;22670;-81
2023/09/02 06:35:15;;;;;;;5.10;4.60;;;;;;;16.86;100.00;98136.73;106912;1278;25471;-82
2023/09/02 06:37:43;;;;;;;5.30;4.70;;;;;;;16.92;100.00;98140.48;107118;1275;22559;-81
2023/09/02 06:40:11;;;;;;;4.20;3.80;;;;;;;17.07;100.00;98143.02;106999;1278;22762;-81
2023/09/02 06:42:40;;;;;;;4.90;4.20;;;;;;;17.20;100.00;98142.06;106912;1272;25479;-82
2023/09/02 06:45:08;;;;;;;10.20;4.60;;;;;;;17.37;100.00;98141.49;106956;1277;22543;-82
2023/09/02 06:47:36;;;;;;;5.10;4.20;;;;;;;17.55;100.00;98148.00;106992;1278;23876;-81
2023/09/02 06:50:05;;;;;;;4.90;4.30;;;;;;;17.59;100.00;98151.80;107012;1278;22517;-81
2023/09/02 06:52:33;;;;;;;5.80;4.80;;;;;;;17.54;100.00;98153.36;107045;1278;22626;-80
2023/09/02 06:55:03;;;;;;;6.60;5.90;;;;;;;17.63;100.00;98151.46;106993;1263;22531;-79
2023/09/02 06:57:31;;;;;;;7.10;6.00;;;;;;;17.63;100.00;98151.46;107000;1270;23279;-81
2023/09/02 06:59:59;;;;;;;6.50;5.60;;;;;;;17.64;100.00;98155.46;106926;1272;22527;-82
2023/09/02 07:02:27;;;;;;;6.90;5.00;;;;;;;17.73;100.00;98162.15;106983;1272;23313;-83
2023/09/02 07:04:55;;;;;;;7.30;6.50;;;;;;;17.83;100.00;98163.74;107007;1263;24410;-82
2023/09/02 07:07:24;;;;;;;7.60;6.50;;;;;;;17.83;100.00;98165.23;106938;1278;25383;-81
2023/09/02 07:09:52;;;;;;;7.70;6.30;;;;;;;17.80;100.00;98164.96;106969;1263;25328;-82
2023/09/02 07:12:20;;;;;;;8.10;6.70;;;;;;;17.76;100.00;98171.35;106890;1278;26587;-83
2023/09/02 07:14:48;;;;;;;7.40;6.70;;;;;;;17.75;100.00;98170.00;106968;1263;23297;-81
2023/09/02 07:17:16;;;;;;;6.70;5.90;;;;;;;17.72;100.00;98175.82;106890;1268;23898;-82
2023/09/02 07:19:44;;;;;;;7.60;6.60;;;;;;;17.75;100.00;98182.91;106891;1275;24197;-84
2023/09/02 07:22:12;;;;;;;7.60;6.80;;;;;;;17.78;100.00;98184.59;106762;1276;25342;-81
2023/09/02 07:24:43;;;;;;;6.80;6.00;;;;;;;17.70;100.00;98194.82;106984;1277;22676;-81
2023/09/02 07:27:11;;;;;;;7.20;6.20;;;;;;;17.60;100.00;98197.23;107003;1278;22649;-81
2023/09/02 07:29:39;;;;;;;6.80;5.50;;;;;;;17.56;100.00;98203.78;106954;1275;22591;-81
2023/09/02 07:32:07;;;;;;;7.40;5.50;;;;;;;17.54;100.00;98207.83;106942;1275;22616;-81
2023/09/02 07:34:38;;;;;;;6.40;4.70;;;;;;;17.44;100.00;98215.42;107095;1278;22546;-81
2023/09/02 07:37:07;;;;;;;5.80;4.50;;;;;;;17.34;100.00;98219.59;106898;1279;25844;-80
2023/09/02 07:39:35;;;;;;;7.30;4.60;;;;;;;17.31;100.00;98222.44;106899;1279;25281;-80
2023/09/02 07:42:05;;;;;;;6.10;4.20;;;;;;;17.35;100.00;98217.11;106944;1279;23474;-80
2023/09/02 07:44:33;;;;;;;7.40;4.00;;;;;;;17.40;100.00;98217.86;106989;1278;22476;-80
2023/09/02 07:47:01;;;;;;;5.10;4.00;;;;;;;17.42;100.00;98222.13;106959;1276;22544;-80
2023/09/02 07:49:29;;;;;;;6.30;4.10;;;;;;;17.48;100.00;98225.13;107137;1278;22617;-80
2023/09/02 07:51:57;;;;;;;4.40;3.40;;;;;;;17.54;100.00;98227.98;106973;1269;24228;-80
2023/09/02 07:54:25;;;;;;;5.00;3.70;;;;;;;17.65;100.00;98225.98;107040;1268;22642;-80
2023/09/02 07:56:53;;;;;;;5.30;3.70;;;;;;;17.73;100.00;98231.37;106983;1255;24239;-80
2023/09/02 07:59:21;;;;;;;5.60;3.70;;;;;;;17.78;100.00;98235.92;106937;1278;22778;-80
2023/09/02 08:01:49;;;;;;;4.40;3.10;;;;;;;17.83;100.00;98244.52;106851;1269;24447;-80
2023/09/02 08:04:17;;;;;;;3.80;3.00;;;;;;;17.87;100.00;98246.35;106906;1278;22551;-80
2023/09/02 08:06:45;;;;;;;5.20;3.60;;;;;;;17.86;100.00;98247.66;106999;1275;22541;-80
2023/09/02 08:09:14;;;;;;;5.90;3.20;;;;;;;17.82;100.00;98247.98;106917;1278;22529;-80
2023/09/02 08:11:42;;;;;;;4.90;3.10;;;;;;;17.77;100.00;98248.87;107003;1279;25356;-80
2023/09/02 08:14:10;;;;;;;7.00;3.80;;;;;;;17.73;100.00;98253.88;106921;1275;24430;-80
2023/09/02 08:16:38;;;;;;;4.40;3.60;;;;;;;17.71;100.00;98254.66;106956;1275;22564;-81
2023/09/02 08:19:06;;;;;;;5.90;3.50;;;;;;;17.73;100.00;98254.42;106974;1278;22583;-82
2023/09/02 08:21:34;;;;;;;6.60;3.70;;;;;;;17.80;100.00;98254.66;106887;1279;22509;-81
2023/09/02 08:24:02;;;;;;;6.70;3.00;;;;;;;17.94;100.00;98255.39;107083;1278;24242;-80
2023/09/02 08:26:30;;;;;;;4.90;3.50;;;;;;;18.09;100.00;98254.08;107250;1264;22569;-79
2023/09/02 08:28:58;;;;;;;5.20;3.60;;;;;;;18.02;100.00;98235.86;106948;1275;22517;-80
2023/09/02 08:31:26;;;;;;;6.60;4.00;;;;;;;18.19;100.00;98255.98;107085;1275;22743;-80
2023/09/02 08:33:54;;;;;;;5.50;3.70;;;;;;;18.29;100.00;98257.48;107098;1277;22629;-79
2023/09/02 08:36:22;;;;;;;5.70;3.40;;;;;;;18.43;100.00;98263.05;107153;1275;25256;-80
2023/09/02 08:38:52;;;;;;;4.50;3.40;;;;;;;18.56;100.00;98267.14;107112;1254;22534;-80
2023/09/02 08:41:30;;;;;;;6.50;3.40;;;;;;;18.70;100.00;98264.69;106968;1268;22677;-81
2023/09/02 08:44:03;;;;;;;5.10;3.60;;;;;;;18.77;100.00;98268.96;107187;1275;24225;-82
2023/09/02 08:46:33;;;;;;;4.60;3.50;;;;;;;18.81;100.00;98270.69;107188;1263;25328;-83
2023/09/02 08:49:01;;;;;;;6.00;3.60;;;;;;;18.86;100.00;98266.46;107178;1268;22623;-82
2023/09/02 08:51:29;;;;;;;5.20;2.90;;;;;;;19.06;100.00;98268.05;107107;1278;24346;-83
2023/09/02 08:53:59;;;;;;;5.10;3.30;;;;;;;19.35;100.00;98271.46;107126;1277;22547;-82
2023/09/02 08:56:27;;;;;;;5.90;3.40;;;;;;;19.37;100.00;98273.71;107157;1267;22792;-83
2023/09/02 08:58:55;;;;;;;8.90;4.10;;;;;;;19.23;100.00;98275.27;107173;1263;23445;-83
2023/09/02 09:01:24;;;;;;;4.30;3.50;;;;;;;19.19;100.00;98279.74;107021;1278;22526;-83
2023/09/02 09:03:55;;;;;;;5.90;3.60;;;;;;;19.19;100.00;98280.28;107129;1275;22535;-83
2023/09/02 09:06:24;;;;;;;5.00;3.10;;;;;;;19.28;100.00;98280.55;107065;1278;22535;-83
2023/09/02 09:08:55;;;;;;;3.70;2.30;;;;;;;19.37;100.00;98279.94;107001;1278;22561;-81
2023/09/02 09:11:26;;;;;;;5.30;2.60;;;;;;;19.31;99.84;98286.96;107278;1278;25316;-80
2023/09/02 09:13:58;;;;;;;3.10;2.30;;;;;;;19.24;99.65;98284.11;106969;1279;22531;-81
2023/09/02 09:16:33;;;;;;;5.20;2.20;;;;;;;19.25;98.91;98290.46;106958;1275;24216;-80
2023/09/02 09:19:02;;;;;;;3.00;2.10;;;;;;;19.24;99.71;98293.57;106975;1278;22529;-81
2023/09/02 09:21:30;;;;;;;3.50;2.30;;;;;;;19.32;100.00;98291.83;106904;1277;24037;-80
2023/09/02 09:23:58;;;;;;;2.60;2.20;;;;;;;19.46;100.00;98292.95;107006;1266;25296;-82
2023/09/02 09:26:27;;;;;;;2.60;1.80;;;;;;;19.53;99.93;98293.20;107047;1278;24257;-79
2023/09/02 09:28:58;;;;;;;3.40;2.10;;;;;;;19.63;99.93;98292.24;107091;1267;23433;-79
2023/09/02 09:31:27;;;;;;;3.30;2.00;;;;;;;19.63;98.42;98300.41;107006;1278;22540;-80
2023/09/02 09:34:00;;;;;;;3.00;2.00;;;;;;;19.51;95.69;98298.46;106898;1272;23477;-81
2023/09/02 09:36:31;;;;;;;2.10;1.90;;;;;;;19.38;96.86;98305.04;106938;1272;24190;-80
2023/09/02 09:39:05;;;;;;;2.40;1.90;;;;;;;19.39;97.09;98306.08;107173;1272;25355;-80
2023/09/02 09:41:35;;;;;;;2.20;2.00;;;;;;;19.53;97.78;98307.02;107181;1277;23491;-81
2023/09/02 09:44:04;;;;;;;4.60;2.30;;;;;;;19.62;95.70;98312.75;107082;1267;22541;-80
2023/09/02 09:46:34;;;;;;;2.90;2.00;;;;;;;19.60;94.18;98315.34;107148;1264;25449;-79
2023/09/02 09:49:03;;;;;;;3.60;2.40;;;;;;;19.49;94.99;98319.02;107051;1272;25328;-81
2023/09/02 09:51:31;;;;;;;3.50;2.40;;;;;;;19.52;95.19;98318.56;106826;1267;22643;-81
2023/09/02 09:53:59;;;;;;;2.00;1.80;;;;;;;19.57;94.56;98322.60;107014;1274;22736;-80
2023/09/02 09:56:27;;;;;;;2.40;2.10;;;;;;;19.59;93.89;98323.27;107034;1277;22632;-79
2023/09/02 09:59:07;;;;;;;2.90;2.20;;;;;;;19.58;92.00;98324.64;107306;1265;22563;-81
2023/09/02 10:01:37;;;;;;;2.30;1.90;;;;;;;19.51;92.62;98329.55;107147;1278;22575;-82
2023/09/02 10:04:08;;;;;;;2.80;2.40;;;;;;;19.49;93.32;98332.69;107149;1270;26586;-78
2023/09/02 10:06:38;;;;;;;3.20;2.50;;;;;;;19.51;93.29;98336.79;108130;1270;22689;-79
2023/09/02 10:09:06;;;;;;;2.40;2.00;;;;;;;19.52;93.63;98335.42;107646;1274;22552;-80
2023/09/02 10:11:35;;;;;;;3.40;2.70;;;;;;;19.62;93.56;98333.13;108465;1275;22511;-82
2023/09/02 10:14:04;;;;;;;2.70;2.40;;;;;;;19.64;93.47;98317.98;108235;1278;26619;-78
2023/09/02 10:16:34;;;;;;;3.60;2.60;;;;;;;19.87;93.01;98332.59;107066;1264;25447;-78
2023/09/02 10:19:04;;;;;;;3.70;3.00;;;;;;;19.97;91.49;98335.82;107757;1267;22531;-80
2023/09/02 10:21:33;;;;;;;5.50;2.70;;;;;;;20.00;91.34;98333.30;107137;1256;22599;-82
2023/09/02 10:24:04;;;;;;;4.50;3.20;;;;;;;20.04;89.54;98340.91;107057;1275;26717;-81
2023/09/02 10:26:52;;;;;;;7.00;3.10;;;;;;;20.09;88.58;98338.71;107056;1278;24194;-81
2023/09/02 10:29:27;;;;;;;6.80;3.40;;;;;;;20.10;88.78;98337.33;107018;1277;23212;-81
2023/09/02 10:32:13;;;;;;;6.50;3.60;;;;;;;20.05;88.21;98340.64;107106;1276;23075;-82
2023/09/02 10:34:58;;;;;;;5.00;4.10;;;;;;;20.03;88.79;98338.09;106991;1277;25328;-87
2023/09/02 10:37:35;;;;;;;7.90;4.80;;;;;;;20.02;88.52;98344.70;107229;1267;25356;-81
2023/09/02 10:40:11;;;;;;;4.60;3.90;;;;;;;19.95;88.11;98344.60;107069;1272;22543;-85
2023/09/02 10:42:39;;;;;;;5.50;4.50;;;;;;;20.07;88.43;98344.45;107321;1271;22521;-83
2023/09/02 10:45:08;;;;;;;6.30;4.40;;;;;;;20.22;86.30;98344.67;107118;1277;22525;-82
2023/09/02 10:47:37;;;;;;;7.00;5.00;;;;;;;20.31;85.87;98350.79;107074;1278;22534;-86
2023/09/02 10:50:08;;;;;;;7.00;5.40;;;;;;;20.37;86.07;98347.33;107069;1278;22537;-89
2023/09/02 10:52:37;;;;;;;6.70;5.60;;;;;;;20.49;86.58;98351.77;106928;1269;22535;-81
2023/09/02 10:55:10;;;;;;;4.90;4.20;;;;;;;20.60;85.50;98351.61;107193;1264;22643;-87
2023/09/02 10:57:55;;;;;;;10.40;4.90;;;;;;;20.69;86.29;98346.82;107133;1270;23612;-84
2023/09/02 11:00:28;;;;;;;6.30;4.70;;;;;;;20.78;85.69;98352.04;106933;1267;22641;-81
2023/09/02 11:02:58;;;;;;;5.70;4.70;;;;;;;20.91;84.01;98353.13;107018;1270;26618;-86
2023/09/02 11:05:28;;;;;;;4.30;3.30;;;;;;;20.96;82.27;98354.42;107095;1276;22531;-87
2023/09/02 11:07:56;;;;;;;4.80;3.70;;;;;;;20.97;81.20;98357.31;106879;1278;23013;-87
2023/09/02 11:10:53;;;;;;;4.90;3.50;;;;;;;20.99;80.57;98363.40;107044;1275;22769;-85
2023/09/02 11:13:22;;;;;;;4.60;4.00;;;;;;;20.97;80.61;98367.90;107115;1276;24014;-87
2023/09/02 11:16:15;;;;;;;4.30;3.30;;;;;;;21.01;81.05;98369.80;107107;1278;24312;-89
2023/09/02 11:18:43;;;;;;;4.30;3.90;;;;;;;21.18;81.19;98365.34;107159;1273;23412;-80
2023/09/02 11:21:42;;;;;;;4.90;3.00;;;;;;;21.38;79.48;98368.91;106960;1278;24349;-79
2023/09/02 11:24:14;;;;;;;4.50;3.00;;;;;;;21.62;79.85;98371.00;107246;1270;22549;-81
2023/09/02 11:26:49;;;;;;;3.30;2.70;;;;;;;21.81;80.09;98368.73;107197;1278;22534;-80
2023/09/02 11:29:23;;;;;;;3.70;2.90;;;;;;;22.02;78.24;98377.83;107184;1264;23192;-82
2023/09/02 11:31:58;;;;;;;;;;;;;;;21.97;76.86;98376.56;107247;1262;24410;-83